Time,TemperatureF,DewpointF,PressureIn,WindDirection,WindDirectionDegrees,WindSpeedMPH,WindSpeedGustMPH,Humidity,HourlyPrecipIn,Conditions,Clouds,dailyrainin,SoftwareType,DateUTC
2013-07-03 00:00:00,73.0,71.2,30.16,South,180,2.2,2.2,94,0.00,,,-99.99,meteobridge,2013-07-03 04:00:00,
2013-07-03 00:01:00,73.0,71.2,30.16,SW,225,2.2,2.2,94,0.00,,,0.00,meteobridge,2013-07-03 04:01:00,
2013-07-03 00:02:00,73.0,71.2,30.16,SW,225,2.2,2.2,94,0.00,,,0.00,meteobridge,2013-07-03 04:02:00,
2013-07-03 00:03:00,73.0,71.2,30.16,ESE,113,3.1,3.1,94,0.00,,,0.00,meteobridge,2013-07-03 04:03:00,
2013-07-03 00:04:00,73.0,71.2,30.16,NE,45,1.6,3.1,94,0.00,,,0.00,meteobridge,2013-07-03 04:04:00,
2013-07-03 00:06:00,73.0,71.2,30.16,SE,135,1.6,1.6,94,0.00,,,0.00,meteobridge,2013-07-03 04:06:00,
2013-07-03 00:09:00,73.0,71.2,30.16,North,0,2.2,2.2,94,0.00,,,0.00,meteobridge,2013-07-03 04:09:00,
2013-07-03 00:14:00,73.0,71.2,30.16,West,270,0.7,3.1,94,0.00,,,0.00,meteobridge,2013-07-03 04:14:00,
2013-07-03 00:19:00,73.0,71.2,30.16,East,90,1.6,1.6,94,0.00,,,0.00,meteobridge,2013-07-03 04:19:00,
2013-07-03 00:24:00,73.0,71.2,30.16,NE,45,0.7,1.6,94,0.00,,,0.00,meteobridge,2013-07-03 04:24:00,
2013-07-03 00:29:00,72.9,71.1,30.16,SW,225,0.7,0.7,94,0.00,,,0.00,meteobridge,2013-07-03 04:29:00,
2013-07-03 00:32:00,72.9,71.1,30.16,SW,225,0.7,0.7,94,0.00,,,0.00,meteobridge,2013-07-03 04:32:00,
2013-07-03 00:35:00,72.9,71.1,30.16,South,180,2.2,3.1,94,0.00,,,0.00,meteobridge,2013-07-03 04:35:00,
2013-07-03 00:40:00,72.9,71.1,30.16,North,0,1.6,3.1,94,0.00,,,0.00,meteobridge,2013-07-03 04:40:00,
2013-07-03 00:45:00,72.9,71.1,30.16,NW,315,0.7,0.7,94,0.00,,,0.00,meteobridge,2013-07-03 04:45:00,
2013-07-03 00:50:00,72.9,71.1,30.16,SE,135,0.7,0.7,94,0.00,,,0.00,meteobridge,2013-07-03 04:50:00,
2013-07-03 00:52:00,72.9,71.1,30.16,North,0,1.6,2.2,94,0.00,,,0.00,meteobridge,2013-07-03 04:52:00,
2013-07-03 00:53:00,72.7,70.9,30.16,WNW,293,0.7,1.6,94,0.00,,,0.00,meteobridge,2013-07-03 04:53:00,
2013-07-03 00:58:00,72.7,70.9,30.16,SE,135,1.6,1.6,94,0.00,,,0.00,meteobridge,2013-07-03 04:58:00,
2013-07-03 01:03:00,72.7,70.9,30.16,South,180,0.0,0.7,94,0.00,,,0.00,meteobridge,2013-07-03 05:03:00,
2013-07-03 01:08:00,72.7,70.9,30.16,NE,45,0.7,2.2,94,0.00,,,0.00,meteobridge,2013-07-03 05:08:00,
2013-07-03 01:09:00,72.7,70.9,30.16,NE,45,0.7,2.2,94,0.00,,,0.00,meteobridge,2013-07-03 05:09:00,
2013-07-03 01:14:00,72.7,70.9,30.16,North,0,0.7,1.6,94,0.00,,,0.00,meteobridge,2013-07-03 05:14:00,
2013-07-03 01:19:00,72.7,70.9,30.16,NW,315,1.6,1.6,94,0.00,,,0.00,meteobridge,2013-07-03 05:19:00,
2013-07-03 01:24:00,72.7,70.9,30.16,South,180,2.2,2.2,94,0.00,,,0.00,meteobridge,2013-07-03 05:24:00,
2013-07-03 01:29:00,72.7,70.9,30.16,North,0,2.2,3.1,94,0.00,,,0.00,meteobridge,2013-07-03 05:29:00,
2013-07-03 01:35:00,72.9,71.1,30.16,SE,135,2.2,2.2,94,0.00,,,0.00,meteobridge,2013-07-03 05:35:00,
2013-07-03 01:40:00,72.9,71.1,30.16,South,180,0.7,2.2,94,0.00,,,0.00,meteobridge,2013-07-03 05:40:00,
2013-07-03 01:45:00,72.7,70.9,30.16,West,270,2.2,2.2,94,0.00,,,0.00,meteobridge,2013-07-03 05:45:00,
2013-07-03 01:50:00,72.7,70.9,30.16,SW,225,0.7,2.2,94,0.00,,,0.00,meteobridge,2013-07-03 05:50:00,
2013-07-03 01:54:00,72.7,70.9,30.16,NE,45,2.2,2.2,94,0.00,,,0.00,meteobridge,2013-07-03 05:54:00,
2013-07-03 01:57:00,72.7,70.9,30.16,NW,315,2.2,2.2,94,0.00,,,0.00,meteobridge,2013-07-03 05:57:00,
2013-07-03 01:59:00,72.7,70.9,30.16,West,270,0.7,1.6,94,0.00,,,0.00,meteobridge,2013-07-03 05:59:00,
2013-07-03 02:02:00,72.7,70.9,30.16,SE,135,0.7,2.2,94,0.00,,,0.00,meteobridge,2013-07-03 06:02:00,
2013-07-03 02:07:00,72.7,70.9,30.16,West,270,0.0,0.7,94,0.00,,,0.00,meteobridge,2013-07-03 06:07:00,
2013-07-03 02:12:00,72.7,71.2,30.16,SW,225,1.6,1.6,95,0.00,,,0.00,meteobridge,2013-07-03 06:12:00,
2013-07-03 02:14:00,72.7,71.2,30.16,South,180,0.0,1.6,95,0.00,,,0.00,meteobridge,2013-07-03 06:14:00,
2013-07-03 02:17:00,72.7,71.2,30.16,North,0,0.7,0.7,95,0.00,,,0.00,meteobridge,2013-07-03 06:17:00,
2013-07-03 02:22:00,72.5,71.1,30.16,South,180,0.7,0.7,95,0.00,,,0.00,meteobridge,2013-07-03 06:22:00,
2013-07-03 02:24:00,72.5,71.1,30.16,North,0,0.7,0.7,95,0.00,,,0.00,meteobridge,2013-07-03 06:24:00,
2013-07-03 02:26:00,72.5,71.1,30.16,SE,135,2.2,2.2,95,0.00,,,0.00,meteobridge,2013-07-03 06:26:00,
2013-07-03 02:31:00,72.5,71.1,30.16,NW,315,1.6,1.6,95,0.00,,,0.00,meteobridge,2013-07-03 06:31:00,
2013-07-03 02:33:00,72.5,71.1,30.16,WNW,293,0.7,1.6,95,0.00,,,0.00,meteobridge,2013-07-03 06:33:00,
2013-07-03 02:38:00,72.3,70.9,30.16,NE,45,0.7,2.2,95,0.00,,,0.00,meteobridge,2013-07-03 06:38:00,
2013-07-03 02:43:00,72.3,70.9,30.16,West,270,0.7,1.6,95,0.00,,,0.00,meteobridge,2013-07-03 06:43:00,
2013-07-03 02:48:00,72.3,70.9,30.16,SE,135,0.7,0.7,95,0.00,,,0.00,meteobridge,2013-07-03 06:48:00,
2013-07-03 02:53:00,72.3,70.9,30.16,NE,45,1.6,2.2,95,0.00,,,0.00,meteobridge,2013-07-03 06:53:00,
2013-07-03 02:55:00,72.3,70.9,30.16,SE,135,0.7,2.2,95,0.00,,,0.00,meteobridge,2013-07-03 06:55:00,
2013-07-03 03:00:00,72.3,70.9,30.16,West,270,0.7,0.7,95,0.00,,,0.00,meteobridge,2013-07-03 07:00:00,
2013-07-03 03:05:00,72.3,70.9,30.16,North,0,1.6,1.6,95,0.00,,,0.00,meteobridge,2013-07-03 07:05:00,
2013-07-03 03:10:00,72.1,70.7,30.16,West,270,0.7,1.6,95,0.00,,,0.00,meteobridge,2013-07-03 07:10:00,
2013-07-03 03:15:00,72.1,70.7,30.16,West,270,0.7,0.7,95,0.00,,,0.00,meteobridge,2013-07-03 07:15:00,
2013-07-03 03:17:00,72.1,70.7,30.16,SW,225,0.0,0.7,95,0.00,,,0.00,meteobridge,2013-07-03 07:17:00,
2013-07-03 03:22:00,72.1,70.7,30.16,North,0,0.7,1.6,95,0.00,,,0.00,meteobridge,2013-07-03 07:22:00,
2013-07-03 03:28:00,72.0,70.5,30.16,SW,225,0.7,1.6,95,0.00,,,0.00,meteobridge,2013-07-03 07:28:00,
2013-07-03 03:33:00,71.8,70.3,30.16,South,180,0.7,1.6,95,0.00,,,0.00,meteobridge,2013-07-03 07:33:00,
2013-07-03 03:38:00,71.6,70.2,30.16,SE,135,0.7,0.7,95,0.00,,,0.00,meteobridge,2013-07-03 07:38:00,
2013-07-03 03:43:00,71.6,70.2,30.16,NW,315,2.2,2.2,95,0.00,,,0.00,meteobridge,2013-07-03 07:43:00,
2013-07-03 03:48:00,71.4,70.2,30.16,NW,315,0.0,1.6,96,0.00,,,0.00,meteobridge,2013-07-03 07:48:00,
2013-07-03 03:50:00,71.4,70.2,30.16,SW,225,0.0,0.0,96,0.00,,,0.00,meteobridge,2013-07-03 07:50:00,
2013-07-03 03:55:00,71.2,70.0,30.16,South,180,0.7,0.7,96,0.00,,,0.00,meteobridge,2013-07-03 07:55:00,
2013-07-03 04:00:00,71.1,69.8,30.16,South,180,0.0,0.7,96,0.00,,,0.00,meteobridge,2013-07-03 08:00:00,
2013-07-03 04:03:00,71.1,69.8,30.16,South,180,0.7,0.7,96,0.00,,,0.00,meteobridge,2013-07-03 08:03:00,
2013-07-03 04:06:00,71.1,69.8,30.16,SE,135,1.6,1.6,96,0.00,,,0.00,meteobridge,2013-07-03 08:06:00,
2013-07-03 04:09:00,71.1,69.8,30.16,SE,135,0.0,0.7,96,0.00,,,0.00,meteobridge,2013-07-03 08:09:00,
2013-07-03 04:14:00,70.7,69.4,30.16,NE,45,0.0,0.0,96,0.00,,,0.00,meteobridge,2013-07-03 08:14:00,
2013-07-03 04:15:00,70.7,69.4,30.16,NE,45,0.0,0.0,96,0.00,,,0.00,meteobridge,2013-07-03 08:15:00,
2013-07-03 04:20:00,70.7,69.4,30.16,West,270,0.0,0.0,96,0.00,,,0.00,meteobridge,2013-07-03 08:20:00,
2013-07-03 04:25:00,70.7,69.4,30.17,West,270,0.0,0.0,96,0.00,,,0.00,meteobridge,2013-07-03 08:25:00,
2013-07-03 04:30:00,70.7,69.4,30.16,West,270,0.0,0.0,96,0.00,,,0.00,meteobridge,2013-07-03 08:30:00,
2013-07-03 04:35:00,70.7,69.4,30.17,South,180,0.0,0.0,96,0.00,,,0.00,meteobridge,2013-07-03 08:35:00,
2013-07-03 04:40:00,70.7,69.4,30.16,West,270,0.0,0.7,96,0.00,,,0.00,meteobridge,2013-07-03 08:40:00,
2013-07-03 04:41:00,70.7,69.4,30.16,West,270,0.0,0.0,96,0.00,,,0.00,meteobridge,2013-07-03 08:41:00,
2013-07-03 04:45:00,70.7,69.8,30.17,North,0,0.0,0.7,97,0.00,,,0.00,meteobridge,2013-07-03 08:45:00,
2013-07-03 04:51:00,71.1,70.2,30.17,SW,225,0.0,0.0,97,0.00,,,0.00,meteobridge,2013-07-03 08:51:00,
2013-07-03 04:54:00,71.1,70.2,30.17,North,0,0.0,0.0,97,0.00,,,0.00,meteobridge,2013-07-03 08:54:00,
2013-07-03 04:55:00,71.1,70.2,30.17,North,0,0.0,0.0,97,0.00,,,0.00,meteobridge,2013-07-03 08:55:00,
2013-07-03 05:00:00,71.1,70.2,30.17,East,90,0.7,1.6,97,0.00,,,0.00,meteobridge,2013-07-03 09:00:00,
2013-07-03 05:05:00,71.1,70.2,30.17,West,270,0.7,0.7,97,0.00,,,0.00,meteobridge,2013-07-03 09:05:00,
2013-07-03 05:10:00,70.7,69.8,30.17,NW,315,0.0,0.0,97,0.00,,,0.00,meteobridge,2013-07-03 09:10:00,
2013-07-03 05:15:00,70.7,69.8,30.17,NW,315,0.0,0.0,97,0.00,,,0.00,meteobridge,2013-07-03 09:15:00,
2013-07-03 05:20:00,70.7,69.8,30.17,South,180,0.0,0.0,97,0.00,,,0.00,meteobridge,2013-07-03 09:20:00,
2013-07-03 05:25:00,70.7,69.8,30.17,NW,315,0.7,1.6,97,0.00,,,0.00,meteobridge,2013-07-03 09:25:00,
2013-07-03 05:30:00,70.7,69.8,30.17,South,180,1.6,1.6,97,0.00,,,0.00,meteobridge,2013-07-03 09:30:00,
2013-07-03 05:36:00,70.7,69.8,30.17,East,90,0.0,0.0,97,0.00,,,0.00,meteobridge,2013-07-03 09:36:00,
2013-07-03 05:41:00,70.7,69.8,30.18,North,0,0.7,0.7,97,0.00,,,0.00,meteobridge,2013-07-03 09:41:00,
2013-07-03 05:46:00,70.7,69.8,30.18,WNW,293,0.7,0.7,97,0.00,,,0.00,meteobridge,2013-07-03 09:46:00,
2013-07-03 05:50:00,71.1,70.2,30.18,NW,315,0.0,0.0,97,0.00,,,0.00,meteobridge,2013-07-03 09:50:00,
2013-07-03 05:55:00,71.1,70.2,30.18,South,180,0.7,1.6,97,0.00,,,0.00,meteobridge,2013-07-03 09:55:00,
2013-07-03 06:01:00,71.1,70.5,30.18,SE,135,0.0,1.6,98,0.00,,,0.00,meteobridge,2013-07-03 10:01:00,
2013-07-03 06:04:00,71.1,70.5,30.18,South,180,1.6,1.6,98,0.00,,,0.00,meteobridge,2013-07-03 10:04:00,
2013-07-03 06:06:00,71.1,70.5,30.18,WNW,293,0.7,1.6,98,0.00,,,0.00,meteobridge,2013-07-03 10:06:00,
2013-07-03 06:11:00,71.2,70.7,30.18,East,90,0.7,1.6,98,0.00,,,0.00,meteobridge,2013-07-03 10:11:00,
2013-07-03 06:16:00,71.4,70.9,30.18,North,0,0.7,0.7,98,0.00,,,0.00,meteobridge,2013-07-03 10:16:00,
2013-07-03 06:21:00,71.4,70.9,30.19,South,180,1.6,1.6,98,0.00,,,0.00,meteobridge,2013-07-03 10:21:00,
2013-07-03 06:26:00,71.6,70.7,30.19,South,180,0.7,0.7,97,0.00,,,0.00,meteobridge,2013-07-03 10:26:00,
2013-07-03 06:31:00,71.6,70.7,30.19,West,270,0.0,0.0,97,0.00,,,0.00,meteobridge,2013-07-03 10:31:00,
2013-07-03 06:36:00,71.8,70.9,30.19,North,0,1.6,1.6,97,0.00,,,0.00,meteobridge,2013-07-03 10:36:00,
2013-07-03 06:41:00,72.1,71.2,30.19,SW,225,0.7,1.6,97,0.00,,,0.00,meteobridge,2013-07-03 10:41:00,
2013-07-03 06:46:00,72.3,71.4,30.19,NE,45,1.6,1.6,97,0.00,,,0.00,meteobridge,2013-07-03 10:46:00,
2013-07-03 06:50:00,72.5,71.6,30.19,North,0,0.7,0.7,97,0.00,,,0.00,meteobridge,2013-07-03 10:50:00,
2013-07-03 06:54:00,72.5,71.6,30.19,NW,315,0.7,0.7,97,0.00,,,0.00,meteobridge,2013-07-03 10:54:00,
2013-07-03 06:55:00,72.5,71.6,30.19,South,180,1.6,1.6,97,0.00,,,0.00,meteobridge,2013-07-03 10:55:00,
2013-07-03 06:57:00,72.5,71.6,30.19,South,180,1.6,1.6,97,0.00,,,0.00,meteobridge,2013-07-03 10:57:00,
2013-07-03 07:02:00,72.7,71.8,30.19,East,90,1.6,1.6,97,0.00,,,0.00,meteobridge,2013-07-03 11:02:00,
2013-07-03 07:07:00,72.7,71.8,30.19,NW,315,0.7,0.7,97,0.00,,,0.00,meteobridge,2013-07-03 11:07:00,
2013-07-03 07:08:00,72.7,71.8,30.19,NW,315,0.0,0.7,97,0.00,,,0.00,meteobridge,2013-07-03 11:08:00,
2013-07-03 07:10:00,72.7,71.8,30.19,SW,225,1.6,1.6,97,0.00,,,0.00,meteobridge,2013-07-03 11:10:00,
2013-07-03 07:15:00,72.7,71.4,30.19,NW,315,0.7,1.6,96,0.00,,,0.00,meteobridge,2013-07-03 11:15:00,
2013-07-03 07:19:00,72.9,71.6,30.18,South,180,1.6,1.6,96,0.00,,,0.00,meteobridge,2013-07-03 11:19:00,
2013-07-03 07:23:00,73.2,72.0,30.19,NW,315,1.6,1.6,96,0.00,,,0.00,meteobridge,2013-07-03 11:23:00,
2013-07-03 07:25:00,73.2,72.0,30.19,North,0,1.6,1.6,96,0.00,,,0.00,meteobridge,2013-07-03 11:25:00,
2013-07-03 07:30:00,73.8,72.9,30.19,West,270,2.2,2.2,97,0.00,,,0.00,meteobridge,2013-07-03 11:30:00,
2013-07-03 07:35:00,74.3,73.0,30.19,North,0,1.6,1.6,96,0.00,,,0.00,meteobridge,2013-07-03 11:35:00,
2013-07-03 07:40:00,74.7,73.4,30.19,SE,135,1.6,2.2,96,0.00,,,0.00,meteobridge,2013-07-03 11:40:00,
2013-07-03 07:45:00,74.8,73.2,30.19,South,180,2.2,2.2,95,0.00,,,0.00,meteobridge,2013-07-03 11:45:00,
2013-07-03 07:50:00,75.6,73.8,30.19,NW,315,3.8,3.8,94,0.00,,,0.00,meteobridge,2013-07-03 11:50:00,
2013-07-03 07:55:00,75.7,72.9,30.19,East,90,3.1,3.1,91,0.00,,,0.00,meteobridge,2013-07-03 11:55:00,
2013-07-03 08:00:00,76.1,72.9,30.19,North,0,0.7,2.2,90,0.00,,,0.00,meteobridge,2013-07-03 12:00:00,
2013-07-03 08:02:00,76.3,73.0,30.19,South,180,1.6,1.6,90,0.00,,,0.00,meteobridge,2013-07-03 12:02:00,
2013-07-03 08:07:00,76.8,73.4,30.19,South,180,2.2,2.2,89,0.00,,,0.00,meteobridge,2013-07-03 12:07:00,
2013-07-03 08:12:00,77.0,72.9,30.19,NE,45,1.6,2.2,87,0.00,,,0.00,meteobridge,2013-07-03 12:12:00,
2013-07-03 08:14:00,77.0,72.5,30.19,SE,135,1.6,1.6,86,0.00,,,0.00,meteobridge,2013-07-03 12:14:00,
2013-07-03 08:16:00,77.0,72.5,30.19,South,180,1.6,2.2,86,0.00,,,0.00,meteobridge,2013-07-03 12:16:00,
2013-07-03 08:21:00,77.4,72.9,30.19,South,180,1.6,2.2,86,0.00,,,0.00,meteobridge,2013-07-03 12:21:00,
2013-07-03 08:22:00,77.4,72.9,30.19,North,0,1.6,2.2,86,0.00,,,0.00,meteobridge,2013-07-03 12:22:00,
2013-07-03 08:27:00,77.5,73.0,30.19,East,90,1.6,3.8,86,0.00,,,0.00,meteobridge,2013-07-03 12:27:00,
2013-07-03 08:33:00,77.7,72.9,30.19,NW,315,1.6,1.6,85,0.00,,,0.00,meteobridge,2013-07-03 12:33:00,
2013-07-03 08:38:00,77.7,72.9,30.19,SE,135,1.6,2.2,85,0.00,,,0.00,meteobridge,2013-07-03 12:38:00,
2013-07-03 08:43:00,77.7,72.5,30.19,SE,135,1.6,2.2,84,0.00,,,0.00,meteobridge,2013-07-03 12:43:00,
2013-07-03 08:46:00,77.9,72.7,30.19,NE,45,1.6,2.2,84,0.00,,,0.00,meteobridge,2013-07-03 12:46:00,
2013-07-03 08:51:00,78.1,72.9,30.19,SW,225,2.2,2.2,84,0.00,,,0.00,meteobridge,2013-07-03 12:51:00,
2013-07-03 08:56:00,78.4,73.2,30.19,North,0,1.6,3.1,84,0.00,,,0.00,meteobridge,2013-07-03 12:56:00,
2013-07-03 09:01:00,78.6,73.4,30.19,East,90,2.2,2.2,84,0.00,,,0.00,meteobridge,2013-07-03 13:01:00,
2013-07-03 09:07:00,78.8,73.2,30.19,East,90,1.6,3.1,83,0.00,,,0.00,meteobridge,2013-07-03 13:07:00,
2013-07-03 09:12:00,79.2,73.2,30.19,SW,225,1.6,2.2,82,0.00,,,0.00,meteobridge,2013-07-03 13:12:00,
2013-07-03 09:17:00,79.5,73.6,30.19,SE,135,2.2,3.8,82,0.00,,,0.00,meteobridge,2013-07-03 13:17:00,
2013-07-03 09:22:00,79.9,73.9,30.18,NE,45,3.1,3.1,82,0.00,,,0.00,meteobridge,2013-07-03 13:22:00,
2013-07-03 09:25:00,79.9,73.6,30.19,NW,315,2.2,3.1,81,0.00,,,0.00,meteobridge,2013-07-03 13:25:00,
2013-07-03 09:26:00,80.1,73.8,30.19,North,0,4.5,4.5,81,0.00,,,0.00,meteobridge,2013-07-03 13:26:00,
2013-07-03 09:31:00,80.8,73.9,30.19,South,180,3.8,3.8,80,0.00,,,0.00,meteobridge,2013-07-03 13:31:00,
2013-07-03 09:36:00,81.1,73.2,30.19,ESE,113,1.6,2.2,77,0.00,,,0.00,meteobridge,2013-07-03 13:36:00,
2013-07-03 09:37:00,81.1,73.2,30.19,ESE,113,1.6,2.2,77,0.00,,,0.00,meteobridge,2013-07-03 13:37:00,
2013-07-03 09:42:00,81.1,73.2,30.19,North,0,0.7,1.6,77,0.00,,,0.00,meteobridge,2013-07-03 13:42:00,
2013-07-03 09:47:00,81.5,73.6,30.19,NW,315,1.6,2.2,77,0.00,,,0.00,meteobridge,2013-07-03 13:47:00,
2013-07-03 09:52:00,81.7,73.4,30.19,North,0,1.6,2.2,76,0.00,,,0.00,meteobridge,2013-07-03 13:52:00,
2013-07-03 09:58:00,82.4,73.8,30.19,West,270,3.1,3.1,75,0.00,,,0.00,meteobridge,2013-07-03 13:58:00,
2013-07-03 10:03:00,83.1,74.3,30.19,NNW,338,3.8,3.8,75,0.00,,,0.00,meteobridge,2013-07-03 14:03:00,
2013-07-03 10:06:00,83.5,73.6,30.19,South,180,1.6,1.6,72,0.00,,,0.00,meteobridge,2013-07-03 14:06:00,
2013-07-03 10:09:00,83.8,73.8,30.19,SW,225,0.7,2.2,72,0.00,,,0.00,meteobridge,2013-07-03 14:09:00,
2013-07-03 10:14:00,85.5,74.1,30.19,SW,225,1.6,3.1,69,0.00,,,0.00,meteobridge,2013-07-03 14:14:00,
2013-07-03 10:18:00,86.5,73.8,30.19,West,270,1.6,2.2,66,0.00,,,0.00,meteobridge,2013-07-03 14:18:00,
2013-07-03 10:23:00,87.8,74.1,30.19,North,0,1.6,2.2,64,0.00,,,0.00,meteobridge,2013-07-03 14:23:00,
2013-07-03 10:28:00,87.6,73.9,30.19,SW,225,1.6,3.1,64,0.00,,,0.00,meteobridge,2013-07-03 14:28:00,
2013-07-03 10:30:00,87.6,73.9,30.19,South,180,2.2,3.1,64,0.00,,,0.00,meteobridge,2013-07-03 14:30:00,
2013-07-03 10:35:00,88.3,74.1,30.19,SE,135,2.2,2.2,63,0.00,,,0.00,meteobridge,2013-07-03 14:35:00,
2013-07-03 10:38:00,88.7,73.9,30.19,NW,315,2.2,2.2,62,0.00,,,0.00,meteobridge,2013-07-03 14:38:00,
2013-07-03 10:41:00,89.2,73.9,30.20,SW,225,2.2,3.1,61,0.00,,,0.00,meteobridge,2013-07-03 14:41:00,
2013-07-03 10:47:00,88.7,73.6,30.20,South,180,3.1,3.1,61,0.00,,,0.00,meteobridge,2013-07-03 14:47:00,
2013-07-03 10:52:00,89.1,74.3,30.19,SW,225,1.6,3.1,62,0.00,,,0.00,meteobridge,2013-07-03 14:52:00,
2013-07-03 10:57:00,89.8,74.5,30.20,SW,225,2.2,2.2,61,0.00,,,0.00,meteobridge,2013-07-03 14:57:00,
2013-07-03 10:58:00,90.3,75.0,30.19,SW,225,2.2,2.2,61,0.00,,,0.00,meteobridge,2013-07-03 14:58:00,
2013-07-03 11:03:00,91.0,75.2,30.19,West,270,3.8,3.8,60,0.00,,,0.00,meteobridge,2013-07-03 15:03:00,
2013-07-03 11:06:00,91.4,74.5,30.20,SSW,203,3.1,3.1,58,0.00,,,0.00,meteobridge,2013-07-03 15:06:00,
2013-07-03 11:12:00,91.4,73.4,30.19,South,180,1.6,3.8,56,0.00,,,0.00,meteobridge,2013-07-03 15:12:00,
2013-07-03 11:15:00,90.1,72.9,30.20,South,180,1.6,2.2,57,0.00,,,0.00,meteobridge,2013-07-03 15:15:00,
2013-07-03 11:21:00,89.6,73.4,30.20,South,180,1.6,3.1,59,0.00,,,0.00,meteobridge,2013-07-03 15:21:00,
2013-07-03 11:26:00,88.7,73.9,30.20,NNE,23,2.2,3.8,62,0.00,,,0.00,meteobridge,2013-07-03 15:26:00,
2013-07-03 11:28:00,88.0,72.3,30.20,East,90,2.2,3.8,60,0.00,,,0.00,meteobridge,2013-07-03 15:28:00,
2013-07-03 11:33:00,87.4,74.3,30.20,West,270,1.6,1.6,65,0.00,,,0.00,meteobridge,2013-07-03 15:33:00,
2013-07-03 11:38:00,88.5,73.8,30.20,East,90,1.6,3.1,62,0.00,,,0.00,meteobridge,2013-07-03 15:38:00,
2013-07-03 11:42:00,88.3,73.2,30.20,North,0,2.2,2.2,61,0.00,,,0.00,meteobridge,2013-07-03 15:42:00,
2013-07-03 11:47:00,88.5,73.8,30.20,South,180,4.5,4.5,62,0.00,,,0.00,meteobridge,2013-07-03 15:47:00,
2013-07-03 11:52:00,88.0,73.4,30.19,NW,315,2.2,2.2,62,0.00,,,0.00,meteobridge,2013-07-03 15:52:00,
2013-07-03 11:53:00,87.4,73.2,30.19,South,180,2.2,2.2,63,0.00,,,0.00,meteobridge,2013-07-03 15:53:00,
2013-07-03 11:59:00,86.0,72.3,30.19,SE,135,2.2,2.2,64,0.00,,,0.00,meteobridge,2013-07-03 15:59:00,
2013-07-03 12:04:00,84.0,72.3,30.20,SW,225,0.7,2.2,68,0.00,,,0.00,meteobridge,2013-07-03 16:04:00,
2013-07-03 12:09:00,83.5,72.7,30.19,NE,45,0.7,2.2,70,0.00,,,0.00,meteobridge,2013-07-03 16:09:00,
2013-07-03 12:14:00,83.1,72.7,30.20,North,0,1.6,3.1,71,0.00,,,0.00,meteobridge,2013-07-03 16:14:00,
2013-07-03 12:20:00,82.9,73.0,30.19,NW,315,1.6,2.2,72,0.00,,,0.00,meteobridge,2013-07-03 16:20:00,
2013-07-03 12:25:00,82.8,72.9,30.20,North,0,0.7,1.6,72,0.00,,,0.00,meteobridge,2013-07-03 16:25:00,
2013-07-03 12:30:00,84.6,74.5,30.20,South,180,2.2,2.2,72,0.00,,,0.00,meteobridge,2013-07-03 16:30:00,
2013-07-03 12:35:00,87.3,75.4,30.20,North,0,1.6,2.2,68,0.00,,,0.00,meteobridge,2013-07-03 16:35:00,
2013-07-03 12:40:00,88.9,74.1,30.20,South,180,2.2,2.2,62,0.00,,,0.00,meteobridge,2013-07-03 16:40:00,
2013-07-03 12:45:00,88.3,73.6,30.20,North,0,2.2,3.1,62,0.00,,,0.00,meteobridge,2013-07-03 16:45:00,
2013-07-03 12:50:00,88.3,73.6,30.19,NW,315,0.7,2.2,62,0.00,,,0.00,meteobridge,2013-07-03 16:50:00,
2013-07-03 12:55:00,88.9,74.1,30.19,East,90,3.1,3.1,62,0.00,,,0.00,meteobridge,2013-07-03 16:55:00,
2013-07-03 13:01:00,89.4,74.7,30.19,NE,45,1.6,2.2,62,0.00,,,0.00,meteobridge,2013-07-03 17:01:00,
2013-07-03 13:06:00,90.1,73.4,30.19,South,180,3.1,3.1,58,0.00,,,0.00,meteobridge,2013-07-03 17:06:00,
2013-07-03 13:11:00,90.5,74.1,30.19,NW,315,1.6,2.2,59,0.00,,,0.00,meteobridge,2013-07-03 17:11:00,
2013-07-03 13:16:00,90.5,73.2,30.18,South,180,2.2,4.5,57,0.00,,,0.00,meteobridge,2013-07-03 17:16:00,
2013-07-03 13:21:00,90.5,73.8,30.19,SE,135,3.1,3.1,58,0.00,,,0.00,meteobridge,2013-07-03 17:21:00,
2013-07-03 13:26:00,90.5,73.2,30.18,South,180,2.2,4.5,57,0.00,,,0.00,meteobridge,2013-07-03 17:26:00,
2013-07-03 13:32:00,90.1,72.3,30.18,SW,225,3.1,3.1,56,0.00,,,0.00,meteobridge,2013-07-03 17:32:00,
2013-07-03 13:37:00,91.0,73.8,30.18,SW,225,3.1,3.1,57,0.00,,,0.00,meteobridge,2013-07-03 17:37:00,
2013-07-03 13:42:00,91.4,73.4,30.18,South,180,2.2,2.2,56,0.00,,,0.00,meteobridge,2013-07-03 17:42:00,
2013-07-03 13:47:00,91.4,73.0,30.18,NW,315,3.8,3.8,55,0.00,,,0.00,meteobridge,2013-07-03 17:47:00,
2013-07-03 13:52:00,90.9,73.0,30.18,South,180,2.2,3.1,56,0.00,,,0.00,meteobridge,2013-07-03 17:52:00,
2013-07-03 13:58:00,89.6,73.4,30.18,SW,225,1.6,3.1,59,0.00,,,0.00,meteobridge,2013-07-03 17:58:00,
2013-07-03 14:03:00,89.2,73.6,30.17,SW,225,2.2,2.2,60,0.00,,,0.00,meteobridge,2013-07-03 18:03:00,
2013-07-03 14:08:00,88.9,73.2,30.18,SW,225,2.2,2.2,60,0.00,,,0.00,meteobridge,2013-07-03 18:08:00,
2013-07-03 14:13:00,88.5,73.8,30.17,NW,315,2.2,3.1,62,0.00,,,0.00,meteobridge,2013-07-03 18:13:00,
2013-07-03 14:18:00,88.7,73.9,30.17,NW,315,2.2,3.1,62,0.00,,,0.00,meteobridge,2013-07-03 18:18:00,
2013-07-03 14:23:00,88.9,74.1,30.17,WSW,248,2.2,2.2,62,0.00,,,0.00,meteobridge,2013-07-03 18:23:00,
2013-07-03 14:28:00,88.9,74.1,30.17,NW,315,1.6,1.6,62,0.00,,,0.00,meteobridge,2013-07-03 18:28:00,
2013-07-03 14:33:00,89.6,74.3,30.17,WSW,248,1.6,2.2,61,0.00,,,0.00,meteobridge,2013-07-03 18:33:00,
2013-07-03 14:38:00,89.2,74.5,30.17,South,180,1.6,1.6,62,0.00,,,0.00,meteobridge,2013-07-03 18:38:00,
2013-07-03 14:44:00,89.6,74.3,30.17,SW,225,3.8,3.8,61,0.00,,,0.00,meteobridge,2013-07-03 18:44:00,
2013-07-03 14:49:00,88.5,73.8,30.17,North,0,2.2,2.2,62,0.00,,,0.00,meteobridge,2013-07-03 18:49:00,
2013-07-03 14:54:00,88.0,73.8,30.17,North,0,3.8,3.8,63,0.00,,,0.00,meteobridge,2013-07-03 18:54:00,
2013-07-03 14:59:00,88.0,73.8,30.17,North,0,2.2,5.4,63,0.00,,,0.00,meteobridge,2013-07-03 18:59:00,
2013-07-03 15:04:00,87.4,73.8,30.17,NE,45,2.2,3.8,64,0.00,,,0.00,meteobridge,2013-07-03 19:04:00,
2013-07-03 15:09:00,87.4,74.7,30.17,SE,135,2.2,2.2,66,0.00,,,0.00,meteobridge,2013-07-03 19:09:00,
2013-07-03 15:15:00,87.6,74.3,30.16,NW,315,2.2,2.2,65,0.00,,,0.00,meteobridge,2013-07-03 19:15:00,
2013-07-03 15:20:00,87.3,74.1,30.17,North,0,1.6,3.8,65,0.00,,,0.00,meteobridge,2013-07-03 19:20:00,
2013-07-03 15:25:00,87.1,74.3,30.17,SW,225,1.6,2.2,66,0.00,,,0.00,meteobridge,2013-07-03 19:25:00,
2013-07-03 15:30:00,87.1,73.9,30.17,SE,135,2.2,3.8,65,0.00,,,0.00,meteobridge,2013-07-03 19:30:00,
2013-07-03 15:35:00,86.9,74.7,30.17,WNW,293,2.2,2.2,67,0.00,,,0.00,meteobridge,2013-07-03 19:35:00,
2013-07-03 15:40:00,86.7,73.9,30.16,East,90,2.2,2.2,66,0.00,,,0.00,meteobridge,2013-07-03 19:40:00,
2013-07-03 15:45:00,86.9,74.7,30.17,South,180,2.2,3.8,67,0.00,,,0.00,meteobridge,2013-07-03 19:45:00,
2013-07-03 15:50:00,86.5,73.8,30.17,West,270,1.6,1.6,66,0.00,,,0.00,meteobridge,2013-07-03 19:50:00,
2013-07-03 15:55:00,86.5,74.3,30.16,SW,225,1.6,2.2,67,0.00,,,0.00,meteobridge,2013-07-03 19:55:00,
2013-07-03 16:01:00,86.4,73.6,30.16,South,180,3.1,3.1,66,0.00,,,0.00,meteobridge,2013-07-03 20:01:00,
2013-07-03 16:06:00,86.0,73.2,30.16,South,180,1.6,1.6,66,0.00,,,0.00,meteobridge,2013-07-03 20:06:00,
2013-07-03 16:11:00,85.8,73.9,30.16,SW,225,0.7,1.6,68,0.00,,,0.00,meteobridge,2013-07-03 20:11:00,
2013-07-03 16:16:00,85.8,73.9,30.16,West,270,1.6,2.2,68,0.00,,,0.00,meteobridge,2013-07-03 20:16:00,
2013-07-03 16:22:00,85.5,73.8,30.16,SW,225,1.6,1.6,68,0.00,,,0.00,meteobridge,2013-07-03 20:22:00,
2013-07-03 16:27:00,85.3,73.6,30.16,NW,315,3.1,3.1,68,0.00,,,0.00,meteobridge,2013-07-03 20:27:00,
2013-07-03 16:32:00,85.1,73.4,30.15,SE,135,0.7,2.2,68,0.00,,,0.00,meteobridge,2013-07-03 20:32:00,
2013-07-03 16:37:00,84.7,73.0,30.15,West,270,1.6,2.2,68,0.00,,,0.00,meteobridge,2013-07-03 20:37:00,
2013-07-03 16:42:00,84.4,73.0,30.15,SE,135,2.2,3.1,69,0.00,,,0.00,meteobridge,2013-07-03 20:42:00,
2013-07-03 16:48:00,83.7,72.9,30.16,SE,135,2.2,2.2,70,0.00,,,0.00,meteobridge,2013-07-03 20:48:00,
2013-07-03 16:53:00,83.7,73.2,30.15,SW,225,1.6,3.1,71,0.00,,,0.00,meteobridge,2013-07-03 20:53:00,
2013-07-03 16:58:00,84.0,73.2,30.15,SW,225,3.1,3.1,70,0.00,,,0.00,meteobridge,2013-07-03 20:58:00,
2013-07-03 17:03:00,84.0,73.6,30.15,SE,135,1.6,2.2,71,0.00,,,0.00,meteobridge,2013-07-03 21:03:00,
2013-07-03 17:08:00,83.7,72.3,30.15,NW,315,2.2,2.2,69,0.00,,,0.00,meteobridge,2013-07-03 21:08:00,
2013-07-03 17:13:00,83.5,72.7,30.15,North,0,2.2,2.2,70,0.00,,,0.00,meteobridge,2013-07-03 21:13:00,
2013-07-03 17:18:00,83.3,72.5,30.15,North,0,1.6,1.6,70,0.00,,,0.00,meteobridge,2013-07-03 21:18:00,
2013-07-03 17:23:00,83.1,72.3,30.15,NE,45,1.6,1.6,70,0.00,,,0.00,meteobridge,2013-07-03 21:23:00,
2013-07-03 17:28:00,82.9,71.8,30.15,SE,135,1.6,2.2,69,0.00,,,0.00,meteobridge,2013-07-03 21:28:00,
2013-07-03 17:33:00,82.6,71.8,30.14,West,270,2.2,3.1,70,0.00,,,0.00,meteobridge,2013-07-03 21:33:00,
2013-07-03 17:38:00,82.2,72.3,30.15,South,180,3.1,3.1,72,0.00,,,0.00,meteobridge,2013-07-03 21:38:00,
2013-07-03 17:44:00,82.0,72.1,30.14,NW,315,2.2,2.2,72,0.00,,,0.00,meteobridge,2013-07-03 21:44:00,
2013-07-03 17:49:00,81.9,72.3,30.14,SW,225,2.2,2.2,73,0.00,,,0.00,meteobridge,2013-07-03 21:49:00,
2013-07-03 17:54:00,81.7,72.5,30.14,SE,135,1.6,2.2,74,0.00,,,0.00,meteobridge,2013-07-03 21:54:00,
2013-07-03 17:59:00,81.5,73.2,30.14,South,180,1.6,1.6,76,0.00,,,0.00,meteobridge,2013-07-03 21:59:00,
2013-07-03 18:04:00,81.3,73.0,30.14,NW,315,1.6,2.2,76,0.00,,,0.00,meteobridge,2013-07-03 22:04:00,
2013-07-03 18:10:00,81.1,73.2,30.15,SW,225,1.6,1.6,77,0.00,,,0.00,meteobridge,2013-07-03 22:10:00,
2013-07-03 18:15:00,81.0,73.0,30.15,NE,45,1.6,1.6,77,0.00,,,0.00,meteobridge,2013-07-03 22:15:00,
2013-07-03 18:20:00,80.2,72.7,30.14,SE,135,0.7,2.2,78,0.00,,,0.00,meteobridge,2013-07-03 22:20:00,
2013-07-03 18:25:00,80.1,73.0,30.15,NE,45,2.2,2.2,79,0.00,,,0.00,meteobridge,2013-07-03 22:25:00,
2013-07-03 18:30:00,79.9,73.6,30.15,South,180,1.6,3.1,81,0.00,,,0.00,meteobridge,2013-07-03 22:30:00,
2013-07-03 18:36:00,80.1,73.8,30.15,North,0,0.7,0.7,81,0.00,,,0.00,meteobridge,2013-07-03 22:36:00,
2013-07-03 18:41:00,79.7,73.4,30.15,North,0,2.2,2.2,81,0.00,,,0.00,meteobridge,2013-07-03 22:41:00,
2013-07-03 18:46:00,79.3,73.0,30.15,North,0,1.6,2.2,81,0.00,,,0.00,meteobridge,2013-07-03 22:46:00,
2013-07-03 18:51:00,78.8,72.9,30.15,North,0,2.2,3.1,82,0.00,,,0.00,meteobridge,2013-07-03 22:51:00,
2013-07-03 18:56:00,78.6,73.0,30.15,East,90,2.2,2.2,83,0.00,,,0.00,meteobridge,2013-07-03 22:56:00,
2013-07-03 19:01:00,78.3,72.7,30.15,West,270,1.6,1.6,83,0.00,,,0.00,meteobridge,2013-07-03 23:01:00,
2013-07-03 19:06:00,78.1,72.9,30.15,North,0,3.1,3.1,84,0.00,,,0.00,meteobridge,2013-07-03 23:06:00,
2013-07-03 19:11:00,77.9,72.7,30.15,West,270,3.1,3.1,84,0.00,,,0.00,meteobridge,2013-07-03 23:11:00,
2013-07-03 19:17:00,77.7,72.5,30.15,SSW,203,0.7,1.6,84,0.00,,,0.00,meteobridge,2013-07-03 23:17:00,
2013-07-03 19:22:00,77.5,72.7,30.15,WNW,293,0.7,0.7,85,0.00,,,0.00,meteobridge,2013-07-03 23:22:00,
2013-07-03 19:27:00,77.4,72.5,30.15,SE,135,4.5,4.5,85,0.00,,,0.00,meteobridge,2013-07-03 23:27:00,
2013-07-03 19:32:00,77.2,72.3,30.15,SE,135,0.7,1.6,85,0.00,,,0.00,meteobridge,2013-07-03 23:32:00,
2013-07-03 19:37:00,77.0,72.1,30.15,NW,315,1.6,3.1,85,0.00,,,0.00,meteobridge,2013-07-03 23:37:00,
2013-07-03 19:42:00,76.8,72.7,30.15,North,0,1.6,1.6,87,0.00,,,0.00,meteobridge,2013-07-03 23:42:00,
2013-07-03 19:47:00,76.6,72.5,30.16,NW,315,1.6,2.2,87,0.00,,,0.00,meteobridge,2013-07-03 23:47:00,
2013-07-03 19:52:00,76.5,72.7,30.16,SE,135,1.6,4.5,88,0.00,,,0.00,meteobridge,2013-07-03 23:52:00,
2013-07-03 19:58:00,76.3,72.5,30.16,North,0,1.6,1.6,88,0.00,,,0.00,meteobridge,2013-07-03 23:58:00,
2013-07-03 20:03:00,76.1,72.3,30.15,SW,225,1.6,1.6,88,0.00,,,0.00,meteobridge,2013-07-04 00:03:00,
2013-07-03 20:08:00,75.9,72.1,30.16,NNE,23,1.6,1.6,88,0.00,,,0.00,meteobridge,2013-07-04 00:08:00,
2013-07-03 20:13:00,75.7,72.3,30.16,SE,135,1.6,1.6,89,0.00,,,0.00,meteobridge,2013-07-04 00:13:00,
2013-07-03 20:18:00,75.6,72.1,30.16,NW,315,1.6,1.6,89,0.00,,,0.00,meteobridge,2013-07-04 00:18:00,
2013-07-03 20:24:00,75.4,72.0,30.16,East,90,0.7,1.6,89,0.00,,,0.00,meteobridge,2013-07-04 00:24:00,
2013-07-03 20:29:00,75.2,72.1,30.16,NNW,338,3.8,3.8,90,0.00,,,0.00,meteobridge,2013-07-04 00:29:00,
2013-07-03 20:34:00,75.0,72.1,30.16,North,0,1.6,2.2,91,0.00,,,0.00,meteobridge,2013-07-04 00:34:00,
2013-07-03 20:39:00,75.0,72.5,30.16,SSW,203,1.6,1.6,92,0.00,,,0.00,meteobridge,2013-07-04 00:39:00,
2013-07-03 20:44:00,74.8,72.3,30.16,NNE,23,2.2,2.2,92,0.00,,,0.00,meteobridge,2013-07-04 00:44:00,
2013-07-03 20:49:00,74.8,72.7,30.17,South,180,1.6,3.8,93,0.00,,,0.00,meteobridge,2013-07-04 00:49:00,
2013-07-03 20:55:00,74.8,72.7,30.17,West,270,1.6,1.6,93,0.00,,,0.00,meteobridge,2013-07-04 00:55:00,
2013-07-03 21:00:00,74.7,72.5,30.18,SE,135,0.7,2.2,93,0.00,,,0.00,meteobridge,2013-07-04 01:00:00,
2013-07-03 21:05:00,74.7,72.9,30.18,East,90,2.2,3.1,94,0.00,,,0.00,meteobridge,2013-07-04 01:05:00,
2013-07-03 21:10:00,74.5,72.7,30.18,South,180,0.7,3.1,94,0.00,,,0.00,meteobridge,2013-07-04 01:10:00,
2013-07-03 21:15:00,74.5,72.7,30.18,SE,135,2.2,2.2,94,0.00,,,0.00,meteobridge,2013-07-04 01:15:00,
2013-07-03 21:20:00,74.3,72.5,30.19,NW,315,2.2,2.2,94,0.00,,,0.00,meteobridge,2013-07-04 01:20:00,
2013-07-03 21:25:00,74.1,72.3,30.19,SE,135,1.6,2.2,94,0.00,,,0.00,meteobridge,2013-07-04 01:25:00,
2013-07-03 21:31:00,73.9,72.1,30.19,SW,225,0.7,1.6,94,0.00,,,0.00,meteobridge,2013-07-04 01:31:00,
2013-07-03 21:36:00,73.9,72.5,30.19,SW,225,2.2,2.2,95,0.00,,,0.00,meteobridge,2013-07-04 01:36:00,
2013-07-03 21:41:00,74.1,72.7,30.19,NW,315,2.2,2.2,95,0.00,,,0.00,meteobridge,2013-07-04 01:41:00,
2013-07-03 21:46:00,73.9,72.5,30.19,South,180,0.7,2.2,95,0.00,,,0.00,meteobridge,2013-07-04 01:46:00,
2013-07-03 21:52:00,73.9,72.5,30.19,ENE,68,3.1,3.1,95,0.00,,,0.00,meteobridge,2013-07-04 01:52:00,
2013-07-03 21:57:00,73.9,72.5,30.19,South,180,2.2,2.2,95,0.00,,,0.00,meteobridge,2013-07-04 01:57:00,
2013-07-03 22:02:00,73.9,72.5,30.19,SW,225,1.6,3.1,95,0.00,,,0.00,meteobridge,2013-07-04 02:02:00,
2013-07-03 22:07:00,74.1,72.7,30.18,SW,225,2.2,2.2,95,0.00,,,0.00,meteobridge,2013-07-04 02:07:00,
2013-07-03 22:12:00,74.3,72.9,30.18,NW,315,4.5,4.5,95,0.00,,,0.00,meteobridge,2013-07-04 02:12:00,
2013-07-03 22:18:00,74.5,73.2,30.18,SE,135,1.6,2.2,96,0.00,,,0.00,meteobridge,2013-07-04 02:18:00,
2013-07-03 22:23:00,74.5,73.2,30.18,SE,135,2.2,2.2,96,0.00,,,0.00,meteobridge,2013-07-04 02:23:00,
2013-07-03 22:28:00,74.7,73.4,30.18,East,90,1.6,2.2,96,0.00,,,0.00,meteobridge,2013-07-04 02:28:00,
2013-07-03 22:33:00,74.7,73.4,30.17,East,90,1.6,4.5,96,0.00,,,0.00,meteobridge,2013-07-04 02:33:00,
2013-07-03 22:39:00,74.5,73.0,30.18,SW,225,2.2,2.2,95,0.00,,,0.00,meteobridge,2013-07-04 02:39:00,
2013-07-03 22:44:00,74.7,73.2,30.17,SE,135,5.4,5.4,95,0.00,,,0.00,meteobridge,2013-07-04 02:44:00,
2013-07-03 22:49:00,74.7,73.4,30.17,NW,315,1.6,1.6,96,0.00,,,0.00,meteobridge,2013-07-04 02:49:00,
2013-07-03 22:54:00,74.5,73.0,30.18,South,180,1.6,2.2,95,0.00,,,0.00,meteobridge,2013-07-04 02:54:00,
2013-07-03 22:59:00,74.5,73.0,30.17,East,90,0.7,2.2,95,0.00,,,0.00,meteobridge,2013-07-04 02:59:00,
2013-07-03 23:04:00,74.3,73.0,30.17,NW,315,1.6,3.8,96,0.00,,,0.00,meteobridge,2013-07-04 03:04:00,
2013-07-03 23:09:00,74.3,73.0,30.17,South,180,0.7,2.2,96,0.00,,,0.00,meteobridge,2013-07-04 03:09:00,
2013-07-03 23:15:00,74.1,72.9,30.17,NE,45,0.7,1.6,96,0.00,,,0.00,meteobridge,2013-07-04 03:15:00,
2013-07-03 23:20:00,74.1,72.9,30.18,South,180,1.6,2.2,96,0.00,,,0.00,meteobridge,2013-07-04 03:20:00,
2013-07-03 23:25:00,74.1,72.9,30.18,East,90,3.1,3.1,96,0.00,,,0.00,meteobridge,2013-07-04 03:25:00,
2013-07-03 23:30:00,74.1,72.9,30.17,SE,135,1.6,1.6,96,0.00,,,0.00,meteobridge,2013-07-04 03:30:00,
2013-07-03 23:35:00,74.1,72.9,30.18,North,0,0.7,1.6,96,0.00,,,0.00,meteobridge,2013-07-04 03:35:00,
2013-07-03 23:40:00,74.1,72.9,30.18,NNW,338,3.1,3.1,96,0.00,,,0.00,meteobridge,2013-07-04 03:40:00,
2013-07-03 23:46:00,74.1,72.9,30.18,South,180,1.6,1.6,96,0.00,,,0.00,meteobridge,2013-07-04 03:46:00,
2013-07-03 23:51:00,74.1,72.9,30.18,SE,135,0.0,2.2,96,0.00,,,0.00,meteobridge,2013-07-04 03:51:00,
2013-07-03 23:56:00,74.1,72.9,30.18,North,0,1.6,2.2,96,0.00,,,0.00,meteobridge,2013-07-04 03:56:00,